VTUJ

Surin Airport

Thailand
TAF VTUJ 260500Z 2606/2706 18005KT 8000 SCT023 BKN100 TEMPO 2611/2614 VRB10KT 4000 TSRA FEW018CB BKN020 OVC100
Issued Valid From Valid To
Apr-26 @ 05:00 UTC
(59 minutes ago)
Apr-26 @ 06:00 UTC
(in a minute)
Apr-27 @ 06:00 UTC
(in 24 hours)
Apr-26 @ 06:00 to Apr-27 @ 06:00
TAF VTUJ 260500Z 2606/2706 18005KT 8000 SCT023 BKN100
Wind Visibility Clouds
180° at 5 knots 7,998 meters
  • Scattered at 2,300' AGL
  • Broken at 10,000' AGL
Temporary Apr-26 @ 11:00 to Apr-26 @ 14:00
TEMPO 2611/2614 VRB10KT 4000 TSRA FEW018CB BKN020 OVC100
Wind Visibility Clouds Conditions
Variable at 10 knots 4,007 meters
  • Few at 1,800' AGL
  • Broken at 2,000' AGL
  • Overcast at 10,000' AGL
  • Thunderstorm
  • Rain
TAF VTUJ 260500Z 2606/2706 18005KT 8000 SCT023 BKN100 TEMPO 2611/2614 VRB10KT 4000 TSRA FEW018CB BKN020 OVC100
Issued Apr-26 @ 05:00 UTC
(59 minutes ago)
Valid From Apr-26 @ 06:00 UTC
(in a minute)
Valid To Apr-27 @ 06:00 UTC
(in 24 hours)
Apr-26 @ 06:00 - Apr-27 @ 06:00
Wind Visibility
180° at 5 knots 7,998 meters
Clouds
  • Scattered at 2,300' AGL
  • Broken at 10,000' AGL
Temporary Apr-26 @ 11:00 - Apr-26 @ 14:00
Wind Visibility
Variable at 10 knots 4,007 meters
Clouds
  • Few at 1,800' AGL
  • Broken at 2,000' AGL
  • Overcast at 10,000' AGL
Conditions
  • Thunderstorm
  • Rain